Time;durP1;ratioP1;P1;durP2;ratioP2;P2;SDS_P1;SDS_P2;PMS_P1;PMS_P2;Temp;Humidity;BMP_temperature;BMP_pressure;BME280_temperature;BME280_humidity;BME280_pressure;Samples;Min_cycle;Max_cycle;Signal;HPM_P1;HPM_P2
2021/01/18 00:00:17;;;;;;;7.10;5.22;;;2.00;99.90;;;;;;5031876;28;20468;-70
2021/01/18 00:02:43;;;;;;;8.57;5.40;;;1.90;99.90;;;;;;5031219;28;20029;-71
2021/01/18 00:05:09;;;;;;;7.85;5.00;;;1.90;99.90;;;;;;5031328;28;20104;-70
2021/01/18 00:07:53;;;;;;;10.32;5.10;;;1.90;99.90;;;;;;5031096;28;20029;-69
2021/01/18 00:10:23;;;;;;;9.77;5.35;;;1.90;99.90;;;;;;5031238;28;20025;-70
2021/01/18 00:12:54;;;;;;;8.65;5.10;;;2.00;99.90;;;;;;5030860;28;20013;-69
2021/01/18 00:15:22;;;;;;;7.63;5.43;;;2.00;99.90;;;;;;5031153;28;20133;-70
2021/01/18 00:17:48;;;;;;;10.05;5.30;;;2.00;99.90;;;;;;5013603;28;20026;-71
2021/01/18 00:20:15;;;;;;;7.72;4.85;;;2.00;99.90;;;;;;5031454;28;20403;-69
2021/01/18 00:22:42;;;;;;;7.53;5.40;;;2.10;99.90;;;;;;5030441;28;20383;-69
2021/01/18 00:25:13;;;;;;;6.05;4.55;;;2.10;99.90;;;;;;5030805;28;20045;-70
2021/01/18 00:27:40;;;;;;;8.18;4.57;;;2.10;99.90;;;;;;5031032;28;20013;-70
2021/01/18 00:30:13;;;;;;;9.15;4.78;;;2.10;99.90;;;;;;5034116;28;20025;-70
2021/01/18 00:32:40;;;;;;;6.95;4.68;;;2.20;99.90;;;;;;5033779;28;20025;-69
2021/01/18 00:35:10;;;;;;;8.10;5.60;;;2.20;99.90;;;;;;5034155;28;20022;-70
2021/01/18 00:37:40;;;;;;;8.85;5.43;;;2.20;99.90;;;;;;5034442;28;20368;-70
2021/01/18 00:40:08;;;;;;;8.10;4.78;;;2.20;99.90;;;;;;5034468;28;20026;-70
2021/01/18 00:42:34;;;;;;;6.00;4.93;;;2.30;99.90;;;;;;5034376;28;20025;-70
2021/01/18 00:44:59;;;;;;;6.40;4.82;;;2.20;99.90;;;;;;5033094;28;20065;-70
2021/01/18 00:47:25;;;;;;;10.00;5.38;;;2.20;99.90;;;;;;5034134;28;20072;-70
2021/01/18 00:49:50;;;;;;;6.65;5.07;;;2.20;99.90;;;;;;5034154;28;20079;-71
2021/01/18 00:52:16;;;;;;;8.90;4.90;;;2.30;99.90;;;;;;5034201;28;20025;-69
2021/01/18 00:54:42;;;;;;;7.38;4.72;;;2.30;99.90;;;;;;5033714;28;20022;-70
2021/01/18 00:57:08;;;;;;;10.68;5.25;;;2.40;99.90;;;;;;5034498;28;20033;-71
2021/01/18 00:59:33;;;;;;;6.65;5.20;;;2.30;99.90;;;;;;5034235;28;20029;-69
2021/01/18 01:01:59;;;;;;;9.55;5.05;;;2.30;99.90;;;;;;5034239;28;20033;-71
2021/01/18 01:04:25;;;;;;;11.07;5.95;;;2.30;99.90;;;;;;5033169;28;20396;-71
2021/01/18 01:06:51;;;;;;;7.65;5.70;;;2.30;99.90;;;;;;5033826;28;20474;-70
2021/01/18 01:09:17;;;;;;;8.27;5.68;;;2.40;99.90;;;;;;5034192;28;20025;-71
2021/01/18 01:11:44;;;;;;;9.48;5.60;;;2.40;99.90;;;;;;5033959;28;20029;-71
2021/01/18 01:14:10;;;;;;;8.88;5.80;;;2.30;99.90;;;;;;5033243;28;20029;-70
2021/01/18 01:16:35;;;;;;;9.82;5.28;;;2.30;99.90;;;;;;5033522;28;20025;-70
2021/01/18 01:19:01;;;;;;;10.60;5.60;;;2.20;99.90;;;;;;5033506;28;20029;-70
2021/01/18 01:21:27;;;;;;;7.35;5.93;;;2.20;99.90;;;;;;5015950;28;20035;-68
2021/01/18 01:23:52;;;;;;;11.25;6.30;;;2.20;99.90;;;;;;5032865;28;20391;-71
2021/01/18 01:26:18;;;;;;;13.27;7.43;;;2.20;99.90;;;;;;5033635;28;20113;-71
2021/01/18 01:28:45;;;;;;;10.13;5.85;;;2.20;99.90;;;;;;5033898;28;20075;-69
2021/01/18 01:31:11;;;;;;;9.10;5.80;;;2.20;99.90;;;;;;5033179;28;20495;-69
2021/01/18 01:33:36;;;;;;;8.07;5.70;;;2.10;99.90;;;;;;5032636;28;20049;-71
2021/01/18 01:36:03;;;;;;;7.95;5.80;;;2.20;99.90;;;;;;5015440;28;20026;-70
2021/01/18 01:38:29;;;;;;;11.57;6.47;;;2.20;99.90;;;;;;5015633;28;20036;-70
2021/01/18 01:40:54;;;;;;;15.18;6.43;;;2.10;99.90;;;;;;5032570;28;20025;-69
2021/01/18 01:43:20;;;;;;;11.07;6.30;;;2.20;99.90;;;;;;5032833;28;20468;-70
2021/01/18 01:45:46;;;;;;;11.85;5.88;;;2.20;99.90;;;;;;5033022;28;20040;-71
2021/01/18 01:48:11;;;;;;;9.07;5.63;;;2.10;99.90;;;;;;5033091;28;20022;-71
2021/01/18 01:50:38;;;;;;;7.78;4.63;;;2.10;99.90;;;;;;5033284;28;20032;-71
2021/01/18 01:53:26;;;;;;;7.07;5.15;;;2.20;99.90;;;;;;4993209;28;20019;-70
2021/01/18 01:55:52;;;;;;;9.80;5.25;;;2.20;99.90;;;;;;4993518;28;20033;-71
2021/01/18 01:58:19;;;;;;;8.55;5.85;;;2.30;99.90;;;;;;4994442;28;20444;-71
2021/01/18 02:00:44;;;;;;;9.68;6.05;;;2.20;99.90;;;;;;4994446;28;20034;-70
2021/01/18 02:03:27;;;;;;;8.40;5.00;;;2.20;99.90;;;;;;4992780;28;20080;-71
2021/01/18 02:05:53;;;;;;;9.43;5.25;;;2.20;99.90;;;;;;4993388;28;20026;-71
2021/01/18 02:08:19;;;;;;;12.52;5.38;;;2.20;99.90;;;;;;4993440;28;20077;-70
2021/01/18 02:10:45;;;;;;;6.93;5.80;;;2.20;99.90;;;;;;4993443;28;20026;-70
2021/01/18 02:13:37;;;;;;;9.43;5.43;;;2.20;99.90;;;;;;4992455;28;20653;-70
2021/01/18 02:16:27;;;;;;;8.45;4.93;;;2.20;99.90;;;;;;4992948;28;20089;-70
2021/01/18 02:19:31;;;;;;;8.57;5.18;;;2.20;99.90;;;;;;4993265;28;20117;-71
2021/01/18 02:22:22;;;;;;;7.00;5.18;;;2.20;99.90;;;;;;5014701;28;20022;-69
2021/01/18 02:25:25;;;;;;;8.38;4.68;;;2.20;99.90;;;;;;5023552;28;20042;-70
2021/01/18 02:28:06;;;;;;;8.57;4.75;;;2.20;99.90;;;;;;5051170;28;20121;-70
2021/01/18 02:31:03;;;;;;;6.35;4.95;;;2.20;99.90;;;;;;5038000;28;20359;-69
2021/01/18 02:33:58;;;;;;;8.05;4.70;;;2.20;99.90;;;;;;5032115;28;20029;-70
2021/01/18 02:36:30;;;;;;;6.38;5.10;;;2.20;99.90;;;;;;5032742;28;20483;-70
2021/01/18 02:39:41;;;;;;;6.28;4.75;;;2.30;99.90;;;;;;5032805;28;20388;-70
2021/01/18 02:42:13;;;;;;;4.60;3.90;;;2.30;99.90;;;;;;5032257;28;20093;-70
2021/01/18 02:47:19;;;;;;;8.43;4.93;;;2.30;99.90;;;;;;5058354;28;20041;-67
2021/01/18 02:49:50;;;;;;;5.07;4.28;;;2.30;99.90;;;;;;5071867;28;20021;-66
2021/01/18 02:52:16;;;;;;;5.97;4.13;;;2.30;99.90;;;;;;5071990;28;20398;-66
2021/01/18 02:54:41;;;;;;;9.63;4.10;;;2.30;99.90;;;;;;5071085;28;20510;-67
2021/01/18 02:57:13;;;;;;;5.63;4.22;;;2.30;99.90;;;;;;5051890;28;20033;-67
2021/01/18 02:59:39;;;;;;;5.20;4.45;;;2.30;99.90;;;;;;5051790;28;20024;-66
2021/01/18 03:02:14;;;;;;;6.78;3.92;;;2.30;99.90;;;;;;5050308;28;20041;-67
2021/01/18 03:04:48;;;;;;;4.45;3.70;;;2.30;99.90;;;;;;5051071;28;20487;-66
2021/01/18 03:07:54;;;;;;;5.15;4.22;;;2.30;99.90;;;;;;5051661;28;20017;-67
2021/01/18 03:10:34;;;;;;;5.53;3.85;;;2.30;99.90;;;;;;5051770;28;20017;-66
2021/01/18 03:13:04;;;;;;;3.65;3.30;;;2.40;99.90;;;;;;5050997;28;20550;-67
2021/01/18 03:15:38;;;;;;;4.03;3.63;;;2.30;99.90;;;;;;5046302;28;20388;-67
2021/01/18 03:18:06;;;;;;;5.30;3.53;;;2.30;99.90;;;;;;5031670;28;20029;-66
2021/01/18 03:20:32;;;;;;;4.32;3.75;;;2.30;99.90;;;;;;5031644;28;20021;-66
2021/01/18 03:23:08;;;;;;;5.78;4.18;;;2.30;99.90;;;;;;5030081;28;20022;-67
2021/01/18 03:25:51;;;;;;;4.60;3.83;;;2.30;99.90;;;;;;5031480;28;20559;-67
2021/01/18 03:28:18;;;;;;;7.40;3.97;;;2.30;99.90;;;;;;5031442;28;20025;-67
2021/01/18 03:30:44;;;;;;;5.72;4.00;;;2.30;99.90;;;;;;5031386;28;20049;-66
2021/01/18 03:33:11;;;;;;;5.13;4.07;;;2.30;99.90;;;;;;5030803;28;20018;-67
2021/01/18 03:35:37;;;;;;;6.25;4.47;;;2.30;99.90;;;;;;5032944;28;20200;-66
2021/01/18 03:38:03;;;;;;;5.97;4.28;;;2.30;99.90;;;;;;5031423;28;20112;-66
2021/01/18 03:40:29;;;;;;;8.40;4.68;;;2.40;99.90;;;;;;5031306;28;20030;-66
2021/01/18 03:42:57;;;;;;;8.10;4.80;;;2.40;99.90;;;;;;5030902;28;20040;-67
2021/01/18 03:45:25;;;;;;;7.45;4.90;;;2.40;99.90;;;;;;5029498;28;20033;-66
2021/01/18 03:47:51;;;;;;;6.00;5.13;;;2.30;99.90;;;;;;5031534;28;20371;-64
2021/01/18 03:50:17;;;;;;;5.85;4.38;;;2.20;99.90;;;;;;5031215;28;20029;-65
2021/01/18 03:52:50;;;;;;;7.07;3.90;;;2.10;99.90;;;;;;5028730;28;20037;-65
2021/01/18 03:55:16;;;;;;;5.80;3.88;;;2.00;99.90;;;;;;5030160;28;20024;-65
2021/01/18 03:57:45;;;;;;;8.23;4.57;;;2.10;99.90;;;;;;5031444;28;20053;-65
2021/01/18 04:00:12;;;;;;;6.07;3.80;;;2.10;99.90;;;;;;5030711;28;20069;-65
2021/01/18 04:02:38;;;;;;;4.93;4.05;;;2.00;99.90;;;;;;5030848;28;20029;-65
2021/01/18 04:05:04;;;;;;;5.32;4.28;;;2.10;99.90;;;;;;5034335;28;20044;-65
2021/01/18 04:07:30;;;;;;;4.03;3.63;;;2.10;99.90;;;;;;5035046;28;20030;-66
2021/01/18 04:09:56;;;;;;;5.68;4.07;;;2.00;99.90;;;;;;5034913;28;20032;-66
2021/01/18 04:12:21;;;;;;;5.63;4.15;;;2.10;99.90;;;;;;5034951;28;20100;-66
2021/01/18 04:14:49;;;;;;;4.28;3.45;;;2.00;99.90;;;;;;5034314;28;20029;-64
2021/01/18 04:17:15;;;;;;;4.50;3.55;;;2.10;99.90;;;;;;5034848;28;20052;-64
2021/01/18 04:19:41;;;;;;;4.03;3.08;;;2.10;99.90;;;;;;5034974;28;20061;-66
2021/01/18 04:22:07;;;;;;;4.82;3.30;;;2.10;99.90;;;;;;5034816;28;20487;-65
2021/01/18 04:24:36;;;;;;;4.30;3.58;;;2.20;99.90;;;;;;5033926;28;20033;-65
2021/01/18 04:27:03;;;;;;;3.63;3.28;;;2.20;99.90;;;;;;5034832;28;20017;-65
2021/01/18 04:29:29;;;;;;;6.55;3.75;;;2.20;99.90;;;;;;5033466;28;20063;-65
2021/01/18 04:31:54;;;;;;;4.03;3.50;;;2.20;99.90;;;;;;5034471;28;20525;-65
2021/01/18 04:34:20;;;;;;;5.57;3.53;;;2.10;99.90;;;;;;5033768;28;20030;-66
2021/01/18 04:36:46;;;;;;;4.07;3.67;;;2.20;99.90;;;;;;5034290;28;20044;-65
2021/01/18 04:39:12;;;;;;;5.45;3.63;;;2.20;99.90;;;;;;5034417;28;20030;-65
2021/01/18 04:41:44;;;;;;;5.63;4.22;;;2.20;99.90;;;;;;5034295;28;20029;-66
2021/01/18 04:44:18;;;;;;;5.90;4.72;;;2.20;99.90;;;;;;5032406;28;20030;-66
2021/01/18 04:46:45;;;;;;;4.85;3.80;;;2.20;99.90;;;;;;5033869;28;20119;-65
2021/01/18 04:49:13;;;;;;;8.45;5.10;;;2.10;99.90;;;;;;5034125;28;20021;-66
2021/01/18 04:51:51;;;;;;;7.13;5.00;;;2.30;99.90;;;;;;5033997;28;20597;-65
2021/01/18 04:54:19;;;;;;;7.00;4.88;;;2.20;99.90;;;;;;5033572;28;20037;-65
2021/01/18 04:57:14;;;;;;;8.02;4.72;;;2.20;99.90;;;;;;5034040;28;20029;-65
2021/01/18 04:59:47;;;;;;;9.40;5.65;;;2.10;99.90;;;;;;5034171;28;20025;-65
2021/01/18 05:02:17;;;;;;;9.00;5.53;;;2.20;99.90;;;;;;5033725;28;20067;-65
2021/01/18 05:04:45;;;;;;;11.77;6.63;;;2.20;99.90;;;;;;5033659;28;20025;-68
2021/01/18 05:07:22;;;;;;;12.45;5.88;;;2.20;99.90;;;;;;5034094;28;20177;-64
2021/01/18 05:10:06;;;;;;;9.88;6.70;;;2.20;99.90;;;;;;5034088;28;20028;-65
2021/01/18 05:12:37;;;;;;;15.32;7.18;;;2.30;99.90;;;;;;5034101;28;20021;-66
2021/01/18 05:15:10;;;;;;;10.85;6.68;;;2.20;99.90;;;;;;5032330;28;20029;-66
2021/01/18 05:17:42;;;;;;;14.88;6.40;;;2.30;99.90;;;;;;5033446;28;20033;-66
2021/01/18 05:20:16;;;;;;;11.65;6.72;;;2.20;99.90;;;;;;5034112;28;20034;-67
2021/01/18 05:22:47;;;;;;;12.00;6.30;;;2.20;99.90;;;;;;5032748;28;20156;-66
2021/01/18 05:25:14;;;;;;;12.98;7.18;;;2.20;99.90;;;;;;5033589;28;20040;-67
2021/01/18 05:27:58;;;;;;;11.52;6.18;;;2.30;99.90;;;;;;5033842;28;20017;-65
2021/01/18 05:30:25;;;;;;;14.73;7.00;;;2.30;99.90;;;;;;5033498;28;20018;-65
2021/01/18 05:33:02;;;;;;;12.18;6.43;;;2.30;99.90;;;;;;5033079;28;20037;-65
2021/01/18 05:35:28;;;;;;;11.63;5.75;;;2.30;99.90;;;;;;5033437;28;20017;-66
2021/01/18 05:38:12;;;;;;;10.60;5.90;;;2.30;99.90;;;;;;5033541;28;20041;-66
2021/01/18 05:40:49;;;;;;;13.30;6.20;;;2.30;99.90;;;;;;5033421;28;20029;-66
2021/01/18 05:43:16;;;;;;;10.70;6.18;;;2.30;99.90;;;;;;5032753;28;20034;-65
2021/01/18 05:45:43;;;;;;;9.77;5.57;;;2.30;99.90;;;;;;5032615;28;20037;-65
2021/01/18 05:48:10;;;;;;;10.45;5.82;;;2.20;99.90;;;;;;5033337;28;20033;-65
2021/01/18 05:50:38;;;;;;;8.45;6.10;;;2.20;99.90;;;;;;5033107;28;20026;-66
2021/01/18 05:53:27;;;;;;;13.38;5.30;;;2.10;99.90;;;;;;5032398;28;20570;-66
2021/01/18 05:55:52;;;;;;;11.45;6.00;;;2.00;99.90;;;;;;5032963;28;20156;-66
2021/01/18 05:58:32;;;;;;;12.30;6.20;;;1.80;99.90;;;;;;5032912;28;20064;-66
2021/01/18 06:00:59;;;;;;;9.75;6.72;;;1.70;99.90;;;;;;5032695;28;20021;-66
2021/01/18 06:03:31;;;;;;;16.48;7.35;;;1.60;99.90;;;;;;5032152;28;20025;-66
2021/01/18 06:05:58;;;;;;;15.13;6.60;;;1.80;99.90;;;;;;5032632;28;20028;-66
2021/01/18 06:08:25;;;;;;;11.82;6.43;;;1.70;99.90;;;;;;5032626;28;20448;-67
2021/01/18 06:10:55;;;;;;;12.50;6.68;;;1.80;99.90;;;;;;5023467;28;20105;-66
2021/01/18 06:13:34;;;;;;;13.13;6.65;;;1.90;99.90;;;;;;5031400;28;20034;-66
2021/01/18 06:15:59;;;;;;;19.38;7.45;;;1.90;99.90;;;;;;5031966;28;20021;-65
2021/01/18 06:18:29;;;;;;;21.48;7.90;;;1.90;99.90;;;;;;5032575;28;20490;-65
2021/01/18 06:20:58;;;;;;;16.35;7.47;;;2.00;99.90;;;;;;5032019;28;20052;-65
2021/01/18 06:23:24;;;;;;;13.60;6.93;;;2.00;99.90;;;;;;5031148;28;20472;-65
2021/01/18 06:25:52;;;;;;;14.82;6.97;;;2.10;99.90;;;;;;5030627;28;20573;-66
2021/01/18 06:28:31;;;;;;;14.77;7.00;;;2.20;99.90;;;;;;5032129;28;20083;-66
2021/01/18 06:31:10;;;;;;;9.20;6.85;;;2.20;99.90;;;;;;5031705;28;20022;-66
2021/01/18 06:33:36;;;;;;;14.77;7.38;;;2.20;99.90;;;;;;5031340;28;20113;-69
2021/01/18 06:36:20;;;;;;;16.17;6.60;;;2.20;99.90;;;;;;5031562;28;20115;-66
2021/01/18 06:38:58;;;;;;;17.30;6.95;;;2.20;99.90;;;;;;5032202;28;20056;-66
2021/01/18 06:41:25;;;;;;;22.92;9.10;;;2.40;99.90;;;;;;5031451;28;20155;-75
2021/01/18 06:43:51;;;;;;;15.70;8.18;;;2.70;99.90;;;;;;5031504;28;20056;-74
2021/01/18 06:46:21;;;;;;;16.15;9.38;;;2.80;99.90;;;;;;5031215;28;20650;-65
2021/01/18 06:48:51;;;;;;;15.27;7.63;;;2.90;99.90;;;;;;5032053;28;20471;-65
2021/01/18 06:51:20;;;;;;;15.55;6.90;;;2.80;99.90;;;;;;5031390;28;20026;-65
2021/01/18 06:53:47;;;;;;;18.05;7.03;;;2.80;99.90;;;;;;5031572;28;20025;-66
2021/01/18 06:56:16;;;;;;;26.95;8.13;;;2.60;99.90;;;;;;5030872;28;20029;-67
2021/01/18 06:59:09;;;;;;;15.57;6.95;;;2.60;99.90;;;;;;5031653;28;20040;-64
2021/01/18 07:01:39;;;;;;;15.68;7.07;;;2.50;99.90;;;;;;5030942;28;20033;-67
2021/01/18 07:04:14;;;;;;;13.40;6.65;;;2.50;99.90;;;;;;5031103;28;20033;-66
2021/01/18 07:06:40;;;;;;;17.88;7.05;;;2.50;99.90;;;;;;5031609;28;20053;-66
2021/01/18 07:09:17;;;;;;;11.45;7.45;;;2.50;99.90;;;;;;5031134;28;20018;-66
2021/01/18 07:11:43;;;;;;;13.30;7.00;;;2.50;99.90;;;;;;5031299;28;20108;-65
2021/01/18 07:14:10;;;;;;;14.98;7.32;;;2.40;99.90;;;;;;5031220;28;20056;-68
2021/01/18 07:16:39;;;;;;;13.10;7.18;;;2.40;99.90;;;;;;5031355;28;20029;-67
2021/01/18 07:19:06;;;;;;;11.27;7.35;;;2.40;99.90;;;;;;5031751;28;20033;-65
2021/01/18 07:21:46;;;;;;;16.63;7.78;;;2.40;99.90;;;;;;5030978;28;20124;-66
2021/01/18 07:24:14;;;;;;;16.15;8.48;;;2.50;99.90;;;;;;5031058;28;20053;-68
2021/01/18 07:27:04;;;;;;;16.77;8.48;;;2.40;99.90;;;;;;5031512;28;20468;-68
2021/01/18 07:29:32;;;;;;;16.88;8.43;;;2.50;99.90;;;;;;5028563;28;20387;-68
2021/01/18 07:31:59;;;;;;;15.25;7.97;;;2.40;99.90;;;;;;5009716;28;20029;-66
2021/01/18 07:34:27;;;;;;;20.67;8.50;;;2.50;99.90;;;;;;5014744;28;20040;-66
2021/01/18 07:37:07;;;;;;;13.45;7.05;;;2.50;99.90;;;;;;5032111;28;20036;-67
2021/01/18 07:39:38;;;;;;;14.25;8.05;;;2.60;99.90;;;;;;5020379;28;20121;-68
2021/01/18 07:42:05;;;;;;;10.80;7.97;;;2.60;99.90;;;;;;5036043;28;20045;-66
2021/01/18 07:44:49;;;;;;;15.20;8.02;;;2.70;99.90;;;;;;5035142;28;20022;-67
2021/01/18 07:47:15;;;;;;;12.45;8.35;;;2.70;99.90;;;;;;5035785;28;20033;-67
2021/01/18 07:49:47;;;;;;;10.13;7.20;;;2.80;99.90;;;;;;5035952;28;20029;-68
2021/01/18 07:52:14;;;;;;;8.48;6.20;;;2.90;99.90;;;;;;5033553;28;20116;-69
2021/01/18 07:54:40;;;;;;;15.68;7.20;;;2.80;99.90;;;;;;5034809;28;20394;-67
2021/01/18 07:57:24;;;;;;;10.32;6.20;;;2.80;99.90;;;;;;5035002;28;20186;-68
2021/01/18 07:59:50;;;;;;;11.57;6.47;;;2.80;99.90;;;;;;5018355;28;20030;-68
2021/01/18 08:02:24;;;;;;;9.95;5.88;;;2.90;99.90;;;;;;5015652;28;20053;-67
2021/01/18 08:04:50;;;;;;;13.43;6.45;;;2.90;99.90;;;;;;5014740;28;20048;-68
2021/01/18 08:07:16;;;;;;;11.73;7.10;;;2.90;99.90;;;;;;5015793;28;20125;-70
2021/01/18 08:09:41;;;;;;;13.77;6.50;;;2.90;99.90;;;;;;5015707;28;20083;-68
2021/01/18 08:12:30;;;;;;;10.93;6.10;;;3.00;99.90;;;;;;5016232;28;20034;-68
2021/01/18 08:14:56;;;;;;;22.35;7.95;;;3.00;99.90;;;;;;5015582;28;20794;-68
2021/01/18 08:17:22;;;;;;;12.52;7.38;;;2.90;99.90;;;;;;5032326;28;20053;-68
2021/01/18 08:20:06;;;;;;;13.95;7.72;;;3.00;99.90;;;;;;5035869;28;20034;-69
2021/01/18 08:22:32;;;;;;;16.90;8.30;;;3.00;99.90;;;;;;5035743;28;20390;-68
2021/01/18 08:24:58;;;;;;;13.27;6.45;;;3.00;99.90;;;;;;5034179;28;20041;-69
2021/01/18 08:27:37;;;;;;;9.93;6.20;;;3.10;99.90;;;;;;5036139;28;20479;-67
2021/01/18 08:30:35;;;;;;;8.52;5.82;;;3.10;99.90;;;;;;5035889;28;20029;-68
2021/01/18 08:33:03;;;;;;;12.13;6.10;;;3.20;99.90;;;;;;5034124;28;20022;-68
2021/01/18 08:35:34;;;;;;;9.85;5.85;;;3.40;99.90;;;;;;5034546;28;20025;-69
2021/01/18 08:38:19;;;;;;;9.60;5.47;;;3.50;99.90;;;;;;5034764;28;20104;-69
2021/01/18 08:40:48;;;;;;;14.88;6.28;;;3.40;99.90;;;;;;5034490;28;20041;-68
2021/01/18 08:43:15;;;;;;;10.23;5.80;;;3.40;99.90;;;;;;5034051;28;20039;-67
2021/01/18 08:45:48;;;;;;;10.77;5.32;;;3.40;99.90;;;;;;5035070;28;20057;-67
2021/01/18 08:48:19;;;;;;;11.45;5.70;;;3.30;99.90;;;;;;5053058;28;20546;-68
2021/01/18 08:50:52;;;;;;;6.65;5.00;;;3.40;99.90;;;;;;5052130;28;20016;-67
2021/01/18 08:53:41;;;;;;;10.35;6.38;;;3.30;99.90;;;;;;5053695;28;20112;-68
2021/01/18 08:56:27;;;;;;;8.68;6.03;;;3.30;99.90;;;;;;5052873;28;20024;-67
2021/01/18 08:58:54;;;;;;;10.32;5.63;;;3.40;99.90;;;;;;5051518;28;20028;-68
2021/01/18 09:01:20;;;;;;;10.48;5.68;;;3.30;99.90;;;;;;5034640;28;20026;-69
2021/01/18 09:03:59;;;;;;;10.65;6.10;;;3.40;99.90;;;;;;5027889;28;20418;-69
2021/01/18 09:06:25;;;;;;;10.07;5.47;;;3.40;99.90;;;;;;5014899;28;20030;-68
2021/01/18 09:09:03;;;;;;;10.13;5.80;;;3.60;99.90;;;;;;5014631;28;20018;-67
2021/01/18 09:11:29;;;;;;;8.43;5.43;;;3.80;99.90;;;;;;5014420;28;20024;-67
2021/01/18 09:13:55;;;;;;;9.85;5.22;;;3.70;99.90;;;;;;5013574;28;20068;-69
2021/01/18 09:16:21;;;;;;;10.20;5.80;;;3.70;99.90;;;;;;5013663;28;20663;-68
2021/01/18 09:18:46;;;;;;;8.98;6.03;;;3.70;99.90;;;;;;5014283;28;20084;-68
2021/01/18 09:21:15;;;;;;;7.75;5.47;;;3.70;99.90;;;;;;5016404;28;20587;-66
2021/01/18 09:23:41;;;;;;;11.20;6.03;;;3.60;99.90;;;;;;5033160;28;20090;-67
2021/01/18 09:26:12;;;;;;;8.73;5.70;;;3.60;99.90;;;;;;5033616;28;20022;-67
2021/01/18 09:28:39;;;;;;;9.90;5.82;;;3.60;99.90;;;;;;5033688;28;20483;-69
2021/01/18 09:31:09;;;;;;;7.20;5.55;;;3.70;99.90;;;;;;5033927;28;20025;-68
2021/01/18 09:33:35;;;;;;;8.60;6.03;;;3.80;99.90;;;;;;5033460;28;20049;-68
2021/01/18 09:36:01;;;;;;;9.75;6.22;;;3.80;99.90;;;;;;5033691;28;20041;-68
2021/01/18 09:38:27;;;;;;;9.43;5.18;;;4.00;99.90;;;;;;5033797;28;20026;-69
2021/01/18 09:40:53;;;;;;;10.70;5.28;;;4.10;99.90;;;;;;5033952;28;20463;-69
2021/01/18 09:43:20;;;;;;;10.35;5.55;;;4.10;99.90;;;;;;5033003;28;20029;-68
2021/01/18 09:45:56;;;;;;;8.98;5.30;;;4.20;99.90;;;;;;5033367;28;20033;-69
2021/01/18 09:48:24;;;;;;;13.43;5.80;;;4.00;99.90;;;;;;5033357;28;20040;-68
2021/01/18 09:51:03;;;;;;;7.97;5.85;;;4.10;99.90;;;;;;5033679;28;20017;-68
2021/01/18 09:53:31;;;;;;;11.10;6.03;;;4.00;99.90;;;;;;5010098;28;20026;-69
2021/01/18 09:56:02;;;;;;;11.50;6.38;;;3.80;99.90;;;;;;5012490;28;20077;-68
2021/01/18 09:58:46;;;;;;;11.30;5.93;;;3.80;99.90;;;;;;5013657;28;20025;-71
2021/01/18 10:01:17;;;;;;;9.73;6.07;;;4.00;99.90;;;;;;5013353;28;20156;-68
2021/01/18 10:03:58;;;;;;;7.50;5.20;;;4.10;99.90;;;;;;5013227;28;20392;-67
2021/01/18 10:06:27;;;;;;;10.32;5.60;;;4.10;99.90;;;;;;5014027;28;20033;-69
2021/01/18 10:09:05;;;;;;;8.25;5.88;;;4.00;99.90;;;;;;5013243;28;20022;-68
2021/01/18 10:11:50;;;;;;;13.07;6.07;;;4.20;99.90;;;;;;5013647;28;20402;-67
2021/01/18 10:14:20;;;;;;;6.57;5.53;;;4.40;99.90;;;;;;5011814;28;20032;-69
2021/01/18 10:17:03;;;;;;;8.85;5.53;;;4.40;99.90;;;;;;5012899;28;20057;-66
2021/01/18 10:19:29;;;;;;;9.60;5.10;;;4.60;99.90;;;;;;5012490;28;20087;-66
2021/01/18 10:21:55;;;;;;;8.65;5.43;;;4.50;99.90;;;;;;5025281;28;20032;-68
2021/01/18 10:24:28;;;;;;;10.18;6.18;;;4.50;99.90;;;;;;5035906;28;20033;-66
2021/01/18 10:27:02;;;;;;;11.15;6.32;;;4.70;99.90;;;;;;5036376;28;20028;-70
2021/01/18 10:29:29;;;;;;;11.52;6.60;;;4.40;99.90;;;;;;5039850;28;20049;-69
2021/01/18 10:31:54;;;;;;;12.65;6.78;;;4.30;99.90;;;;;;5039971;28;20025;-69
2021/01/18 10:34:28;;;;;;;9.40;6.43;;;4.40;99.90;;;;;;5037843;28;20396;-68
2021/01/18 10:36:55;;;;;;;10.80;5.95;;;4.40;99.90;;;;;;5039879;28;20029;-67
2021/01/18 10:39:37;;;;;;;8.48;5.70;;;4.30;99.90;;;;;;5038944;28;20080;-68
2021/01/18 10:42:15;;;;;;;9.20;5.53;;;4.40;99.90;;;;;;5037286;28;20029;-68
2021/01/18 10:44:54;;;;;;;8.65;5.28;;;4.60;99.90;;;;;;5036372;28;20025;-68
2021/01/18 10:47:24;;;;;;;10.20;5.90;;;4.80;99.90;;;;;;5037431;28;20052;-69
2021/01/18 10:49:54;;;;;;;7.55;5.28;;;5.10;99.90;;;;;;5035896;28;20557;-69
2021/01/18 10:52:31;;;;;;;6.97;5.00;;;4.90;99.90;;;;;;5036049;28;20112;-68
2021/01/18 10:55:01;;;;;;;8.43;5.00;;;5.00;99.90;;;;;;5035598;28;20021;-69
2021/01/18 10:57:27;;;;;;;6.88;5.40;;;5.10;99.90;;;;;;5034218;28;20021;-71
2021/01/18 11:00:19;;;;;;;6.68;4.90;;;5.00;99.90;;;;;;5034775;28;20025;-68
2021/01/18 11:03:05;;;;;;;9.02;4.93;;;5.10;99.90;;;;;;5033982;28;20545;-69
2021/01/18 11:05:37;;;;;;;11.95;5.80;;;4.50;99.90;;;;;;5034407;28;20048;-69
2021/01/18 11:08:08;;;;;;;8.35;5.18;;;4.60;99.90;;;;;;5034611;28;20018;-70
2021/01/18 11:10:44;;;;;;;11.27;5.32;;;4.80;99.90;;;;;;5034964;28;20075;-69
2021/01/18 11:13:12;;;;;;;9.65;5.30;;;5.00;99.90;;;;;;5037138;28;20093;-68
2021/01/18 11:15:40;;;;;;;6.05;4.70;;;4.80;99.90;;;;;;5038885;28;20021;-68
2021/01/18 11:18:11;;;;;;;7.07;4.78;;;4.60;99.90;;;;;;5039323;28;20439;-68
2021/01/18 11:20:38;;;;;;;9.07;5.80;;;4.70;99.90;;;;;;5038932;28;20025;-68
2021/01/18 11:23:09;;;;;;;5.18;4.30;;;4.70;99.90;;;;;;5034941;28;20033;-68
2021/01/18 11:25:36;;;;;;;8.77;5.00;;;4.70;99.90;;;;;;5038112;28;20096;-66
2021/01/18 11:28:13;;;;;;;6.72;4.47;;;4.70;99.90;;;;;;5033940;28;20026;-67
2021/01/18 11:30:40;;;;;;;6.43;4.80;;;4.90;99.90;;;;;;5033044;28;20067;-69
2021/01/18 11:33:09;;;;;;;6.95;4.93;;;5.00;99.90;;;;;;5031054;28;20029;-67
2021/01/18 11:35:35;;;;;;;9.95;5.03;;;4.90;99.90;;;;;;5030196;28;20025;-67
2021/01/18 11:38:00;;;;;;;5.47;4.50;;;5.00;99.90;;;;;;5031516;28;20088;-67
2021/01/18 11:40:26;;;;;;;6.93;4.22;;;5.10;99.90;;;;;;5032131;28;20518;-67
2021/01/18 11:42:52;;;;;;;7.25;4.65;;;5.10;99.90;;;;;;5031276;28;20037;-67
2021/01/18 11:45:18;;;;;;;6.65;4.18;;;5.20;99.90;;;;;;5031075;28;20518;-66
2021/01/18 11:47:43;;;;;;;8.65;4.50;;;5.30;99.90;;;;;;5031786;28;20105;-66
2021/01/18 11:50:10;;;;;;;7.38;4.65;;;5.30;99.90;;;;;;5032305;28;20021;-69
2021/01/18 11:52:57;;;;;;;9.77;4.30;;;5.30;99.90;;;;;;5032209;28;20030;-68
2021/01/18 11:55:22;;;;;;;6.78;4.22;;;5.80;99.90;;;;;;5033903;28;20026;-69
2021/01/18 11:57:50;;;;;;;6.07;4.13;;;6.10;99.90;;;;;;5034858;28;20033;-69
2021/01/18 12:00:24;;;;;;;6.13;4.35;;;6.30;99.90;;;;;;5037407;28;20024;-68
2021/01/18 12:02:53;;;;;;;6.75;4.00;;;6.60;99.90;;;;;;5036501;28;20025;-68
2021/01/18 12:05:22;;;;;;;9.15;4.65;;;6.40;99.90;;;;;;5036657;28;20037;-70
2021/01/18 12:07:48;;;;;;;5.40;4.20;;;6.30;99.90;;;;;;5038646;28;20498;-68
2021/01/18 12:10:14;;;;;;;6.20;4.55;;;6.20;99.90;;;;;;5038322;28;20018;-67
2021/01/18 12:12:40;;;;;;;6.13;4.13;;;6.10;99.90;;;;;;5037879;28;20028;-70
2021/01/18 12:15:06;;;;;;;4.95;4.22;;;6.10;99.90;;;;;;5037171;28;20523;-68
2021/01/18 12:17:37;;;;;;;6.55;4.63;;;6.10;99.90;;;;;;5035237;28;20056;-70
2021/01/18 12:20:04;;;;;;;6.20;3.63;;;6.30;99.90;;;;;;5036638;28;20029;-69
2021/01/18 12:22:30;;;;;;;6.60;4.53;;;6.30;99.90;;;;;;5037135;28;20021;-70
2021/01/18 12:24:56;;;;;;;7.38;4.15;;;6.60;99.90;;;;;;5038333;28;20434;-69
2021/01/18 12:27:21;;;;;;;8.95;4.50;;;6.40;99.90;;;;;;5039995;28;20037;-68
2021/01/18 12:29:47;;;;;;;11.60;4.90;;;6.40;99.90;;;;;;5039832;28;20108;-69
2021/01/18 12:32:13;;;;;;;6.97;4.15;;;6.20;99.90;;;;;;5037373;28;20028;-68
2021/01/18 12:34:38;;;;;;;7.00;4.90;;;6.40;99.90;;;;;;5038804;28;20044;-68
2021/01/18 12:37:04;;;;;;;7.22;4.65;;;6.10;99.90;;;;;;5039342;28;20033;-69
2021/01/18 12:39:29;;;;;;;7.28;4.68;;;5.80;99.90;;;;;;5036719;28;20510;-66
2021/01/18 12:41:55;;;;;;;9.35;4.50;;;5.60;99.90;;;;;;5036250;28;20100;-68
2021/01/18 12:44:21;;;;;;;9.40;5.78;;;5.60;99.90;;;;;;5035062;28;20108;-69
2021/01/18 12:46:49;;;;;;;7.35;4.55;;;5.60;99.90;;;;;;5034223;28;20064;-67
2021/01/18 12:49:15;;;;;;;8.43;4.53;;;5.70;99.90;;;;;;5035747;28;20423;-67
2021/01/18 12:51:41;;;;;;;8.43;4.50;;;5.70;99.90;;;;;;5036209;28;20110;-68
2021/01/18 12:54:06;;;;;;;6.70;4.50;;;5.70;99.90;;;;;;5035084;28;20026;-68
2021/01/18 12:56:33;;;;;;;7.65;3.97;;;5.40;99.90;;;;;;5035754;28;20037;-68
2021/01/18 12:58:59;;;;;;;8.57;4.13;;;5.70;99.90;;;;;;5018395;28;20041;-68
2021/01/18 13:01:32;;;;;;;7.18;4.20;;;5.80;99.90;;;;;;5014283;28;20026;-67
2021/01/18 13:03:59;;;;;;;8.95;4.10;;;5.80;99.90;;;;;;5013517;28;20022;-68
2021/01/18 13:06:44;;;;;;;8.80;3.83;;;5.40;99.90;;;;;;5014436;28;20045;-67
2021/01/18 13:09:15;;;;;;;6.68;3.85;;;5.40;99.90;;;;;;5014215;28;20030;-65
2021/01/18 13:11:46;;;;;;;7.88;4.60;;;5.70;99.90;;;;;;5016564;28;20044;-70
2021/01/18 13:14:12;;;;;;;5.88;3.90;;;6.20;99.90;;;;;;5031980;28;20029;-70